<?xml version="1.0" encoding="UTF-8" standalone="no" ?>
<gpx xmlns="http://www.topografix.com/GPX/1/1" xmlns:xsi="http://www.w3.org/2001/XMLSchema-instance" xsi:schemaLocation="http://www.topografix.com/GPX/1/1 http://www.topografix.com/GPX/1/1/gpx.xsd" version="1.1" creator="VisuGPX - https://www.visugpx.com">
  <metadata>
    <name>Sur le chemin de Dame Fines</name>
    <desc><![CDATA[Puybegon Sur le chemin de Dame Fines]]></desc>
  </metadata>
  <wpt lat="43.79031" lon="1.89482">
    <ele>271.5</ele>
    <name><![CDATA[Place de la mairie]]></name>
  </wpt>
  <wpt lat="43.79127" lon="1.89094">
    <ele>228.7</ele>
    <name><![CDATA[Bifurcation]]></name>
    <type><![CDATA[ prendre à gauche]]></type>
  </wpt>
  <wpt lat="43.78876" lon="1.88973">
    <ele>221.8</ele>
    <name><![CDATA[Étang privé]]></name>
  </wpt>
  <wpt lat="43.78584" lon="1.8916">
    <ele>214.9</ele>
    <name><![CDATA[Point de jonction des deux boucles]]></name>
  </wpt>
  <wpt lat="43.78346" lon="1.88943">
    <ele>203</ele>
    <name><![CDATA[Croisement]]></name>
    <type><![CDATA[ prendre à droite]]></type>
  </wpt>
  <wpt lat="43.786" lon="1.88113">
    <ele>280.8</ele>
    <name><![CDATA[Prendre sentier à droite juste avant le croisement]]></name>
  </wpt>
  <wpt lat="43.77901" lon="1.88025">
    <ele>214.6</ele>
    <name><![CDATA[Petite route de campagne]]></name>
  </wpt>
  <wpt lat="43.78563" lon="1.89639">
    <ele>252.9</ele>
    <name><![CDATA[Route]]></name>
    <type><![CDATA[ virer à droite]]></type>
  </wpt>
  <wpt lat="43.7772" lon="1.90353">
    <ele>177.1</ele>
    <name><![CDATA[À gauche à la D15]]></name>
  </wpt>
  <wpt lat="43.77891" lon="1.9134">
    <ele>212.3</ele>
    <name><![CDATA[Croisement]]></name>
    <type><![CDATA[ cote 211]]></type>
  </wpt>
  <wpt lat="43.77723" lon="1.91791">
    <ele>210</ele>
    <name><![CDATA[Croisement]]></name>
    <type><![CDATA[ aller à gauche]]></type>
  </wpt>
  <wpt lat="43.78139" lon="1.92053">
    <ele>225.6</ele>
    <name><![CDATA[Sentier boisé à gauche]]></name>
  </wpt>
  <wpt lat="43.78488" lon="1.91551">
    <ele>264.1</ele>
    <name><![CDATA[Embranchement]]></name>
    <type><![CDATA[ virer à gauche]]></type>
  </wpt>
  <wpt lat="43.78589" lon="1.90701">
    <ele>200.9</ele>
    <name><![CDATA[A droite puis à gauche]]></name>
    <type><![CDATA[ retour au village]]></type>
  </wpt>
  <wpt lat="43.79032" lon="1.8948">
    <ele>271.5</ele>
    <name><![CDATA[Place de la mairie]]></name>
  </wpt>
  <trk>
    <name><![CDATA[Sur le chemin de Dame Fines]]></name>
    <trkseg>
      <trkpt lat="43.79031" lon="1.89482">
        <ele>272</ele>
        <time>2016-10-09T13:27:39 02:00</time>
      </trkpt>
      <trkpt lat="43.79021" lon="1.89469">
        <ele>270</ele>
        <time>2016-10-09T13:29:20 02:00</time>
      </trkpt>
      <trkpt lat="43.79014" lon="1.89451">
        <ele>268</ele>
        <time>2016-10-09T13:29:56 02:00</time>
      </trkpt>
      <trkpt lat="43.79012" lon="1.89418">
        <ele>265</ele>
        <time>2016-10-09T13:30:20 02:00</time>
      </trkpt>
      <trkpt lat="43.79014" lon="1.89387">
        <ele>261</ele>
        <time>2016-10-09T13:30:44 02:00</time>
      </trkpt>
      <trkpt lat="43.79023" lon="1.89358">
        <ele>258</ele>
        <time>2016-10-09T13:31:07 02:00</time>
      </trkpt>
      <trkpt lat="43.79027" lon="1.89339">
        <ele>255</ele>
        <time>2019-06-26T13:38:40 02:00</time>
      </trkpt>
      <trkpt lat="43.79027" lon="1.89318">
        <ele>252</ele>
        <time>2016-10-09T13:31:30 02:00</time>
      </trkpt>
      <trkpt lat="43.79019" lon="1.8928">
        <ele>246</ele>
        <time>2016-10-09T13:31:53 02:00</time>
      </trkpt>
      <trkpt lat="43.79013" lon="1.89248">
        <ele>241</ele>
        <time>2016-10-09T13:32:15 02:00</time>
      </trkpt>
      <trkpt lat="43.79014" lon="1.89207">
        <ele>236</ele>
        <time>2016-10-09T13:32:40 02:00</time>
      </trkpt>
      <trkpt lat="43.79015" lon="1.8918">
        <ele>233</ele>
        <time>2016-10-09T13:33:08 02:00</time>
      </trkpt>
      <trkpt lat="43.79021" lon="1.89152">
        <ele>230</ele>
        <time>2016-10-09T13:33:35 02:00</time>
      </trkpt>
      <trkpt lat="43.79028" lon="1.89131">
        <ele>229</ele>
        <time>2016-10-09T13:33:57 02:00</time>
      </trkpt>
      <trkpt lat="43.79047" lon="1.89118">
        <ele>228</ele>
        <time>2016-10-09T13:34:16 02:00</time>
      </trkpt>
      <trkpt lat="43.79063" lon="1.89114">
        <ele>228</ele>
        <time>2016-10-09T13:34:32 02:00</time>
      </trkpt>
      <trkpt lat="43.79076" lon="1.8911">
        <ele>228</ele>
        <time>2016-10-09T13:34:55 02:00</time>
      </trkpt>
      <trkpt lat="43.79094" lon="1.8911">
        <ele>228</ele>
        <time>2016-10-09T13:35:19 02:00</time>
      </trkpt>
      <trkpt lat="43.79111" lon="1.89105">
        <ele>229</ele>
        <time>2016-10-09T13:36:01 02:00</time>
      </trkpt>
      <trkpt lat="43.79127" lon="1.89094">
        <ele>229</ele>
        <time>2019-06-26T13:39:45 02:00</time>
      </trkpt>
      <trkpt lat="43.79078" lon="1.89081">
        <ele>229</ele>
        <time>2016-10-09T14:07:40 02:00</time>
      </trkpt>
      <trkpt lat="43.79056" lon="1.89064">
        <ele>231</ele>
        <time>2016-10-09T14:08:01 02:00</time>
      </trkpt>
      <trkpt lat="43.79041" lon="1.89056">
        <ele>232</ele>
        <time>2016-10-09T14:08:57 02:00</time>
      </trkpt>
      <trkpt lat="43.79023" lon="1.8904">
        <ele>233</ele>
        <time>2016-10-09T14:09:18 02:00</time>
      </trkpt>
      <trkpt lat="43.78998" lon="1.89024">
        <ele>233</ele>
        <time>2016-10-09T14:09:40 02:00</time>
      </trkpt>
      <trkpt lat="43.78982" lon="1.89032">
        <ele>231</ele>
        <time>2016-10-09T14:10:01 02:00</time>
      </trkpt>
      <trkpt lat="43.78958" lon="1.89034">
        <ele>228</ele>
        <time>2016-10-09T14:10:20 02:00</time>
      </trkpt>
      <trkpt lat="43.78935" lon="1.89024">
        <ele>226</ele>
        <time>2016-10-09T14:10:39 02:00</time>
      </trkpt>
      <trkpt lat="43.78914" lon="1.8901">
        <ele>224</ele>
        <time>2016-10-09T14:10:59 02:00</time>
      </trkpt>
      <trkpt lat="43.78895" lon="1.88994">
        <ele>222</ele>
        <time>2016-10-09T14:11:20 02:00</time>
      </trkpt>
      <trkpt lat="43.78876" lon="1.88973">
        <ele>221</ele>
        <time>2016-10-09T14:11:37 02:00</time>
      </trkpt>
      <trkpt lat="43.7885" lon="1.88973">
        <ele>218</ele>
        <time>2016-10-09T14:11:55 02:00</time>
      </trkpt>
      <trkpt lat="43.78828" lon="1.88983">
        <ele>214</ele>
        <time>2016-10-09T14:12:15 02:00</time>
      </trkpt>
      <trkpt lat="43.78809" lon="1.89">
        <ele>213</ele>
        <time>2016-10-09T14:12:47 02:00</time>
      </trkpt>
      <trkpt lat="43.78806" lon="1.8903">
        <ele>215</ele>
        <time>2016-10-09T14:13:16 02:00</time>
      </trkpt>
      <trkpt lat="43.78822" lon="1.89048">
        <ele>216</ele>
        <time>2016-10-09T14:13:37 02:00</time>
      </trkpt>
      <trkpt lat="43.78844" lon="1.8906">
        <ele>217</ele>
        <time>2016-10-09T14:14:04 02:00</time>
      </trkpt>
      <trkpt lat="43.78865" lon="1.89048">
        <ele>219</ele>
        <time>2016-10-09T14:14:30 02:00</time>
      </trkpt>
      <trkpt lat="43.78886" lon="1.8906">
        <ele>221</ele>
        <time>2016-10-09T14:14:49 02:00</time>
      </trkpt>
      <trkpt lat="43.78903" lon="1.89081">
        <ele>221</ele>
        <time>2016-10-09T14:15:12 02:00</time>
      </trkpt>
      <trkpt lat="43.78921" lon="1.89101">
        <ele>225</ele>
        <time>2016-10-09T14:15:32 02:00</time>
      </trkpt>
      <trkpt lat="43.78939" lon="1.8912">
        <ele>228</ele>
        <time>2016-10-09T14:15:55 02:00</time>
      </trkpt>
      <trkpt lat="43.78956" lon="1.89141">
        <ele>231</ele>
        <time>2016-10-09T14:16:18 02:00</time>
      </trkpt>
      <trkpt lat="43.78951" lon="1.89148">
        <ele>232</ele>
        <time>2016-10-09T14:16:38 02:00</time>
      </trkpt>
      <trkpt lat="43.78931" lon="1.89155">
        <ele>233</ele>
        <time>2016-10-09T14:17:59 02:00</time>
      </trkpt>
      <trkpt lat="43.78914" lon="1.89168">
        <ele>235</ele>
        <time>2016-10-09T14:18:18 02:00</time>
      </trkpt>
      <trkpt lat="43.78899" lon="1.89192">
        <ele>237</ele>
        <time>2016-10-09T14:18:39 02:00</time>
      </trkpt>
      <trkpt lat="43.78885" lon="1.89217">
        <ele>240</ele>
        <time>2016-10-09T14:19:00 02:00</time>
      </trkpt>
      <trkpt lat="43.78868" lon="1.89239">
        <ele>243</ele>
        <time>2016-10-09T14:19:20 02:00</time>
      </trkpt>
      <trkpt lat="43.78849" lon="1.89255">
        <ele>244</ele>
        <time>2016-10-09T14:19:42 02:00</time>
      </trkpt>
      <trkpt lat="43.78829" lon="1.89271">
        <ele>245</ele>
        <time>2016-10-09T14:20:04 02:00</time>
      </trkpt>
      <trkpt lat="43.78808" lon="1.89285">
        <ele>245</ele>
        <time>2016-10-09T14:20:25 02:00</time>
      </trkpt>
      <trkpt lat="43.78788" lon="1.893">
        <ele>245</ele>
        <time>2016-10-09T14:20:45 02:00</time>
      </trkpt>
      <trkpt lat="43.78769" lon="1.89317">
        <ele>246</ele>
        <time>2016-10-09T14:21:04 02:00</time>
      </trkpt>
      <trkpt lat="43.78748" lon="1.89328">
        <ele>245</ele>
        <time>2016-10-09T14:22:21 02:00</time>
      </trkpt>
      <trkpt lat="43.78727" lon="1.89315">
        <ele>241</ele>
        <time>2016-10-09T14:22:52 02:00</time>
      </trkpt>
      <trkpt lat="43.78708" lon="1.89296">
        <ele>236</ele>
        <time>2016-10-09T14:23:13 02:00</time>
      </trkpt>
      <trkpt lat="43.78691" lon="1.89275">
        <ele>232</ele>
        <time>2016-10-09T14:23:34 02:00</time>
      </trkpt>
      <trkpt lat="43.78675" lon="1.89253">
        <ele>228</ele>
        <time>2016-10-09T14:23:54 02:00</time>
      </trkpt>
      <trkpt lat="43.78658" lon="1.89231">
        <ele>225</ele>
        <time>2016-10-09T14:24:15 02:00</time>
      </trkpt>
      <trkpt lat="43.78638" lon="1.89215">
        <ele>223</ele>
        <time>2016-10-09T14:24:35 02:00</time>
      </trkpt>
      <trkpt lat="43.78617" lon="1.89203">
        <ele>221</ele>
        <time>2016-10-09T14:24:54 02:00</time>
      </trkpt>
      <trkpt lat="43.78597" lon="1.89185">
        <ele>218</ele>
        <time>2016-10-09T14:25:14 02:00</time>
      </trkpt>
      <trkpt lat="43.78584" lon="1.8916">
        <ele>214</ele>
        <time>2016-10-09T14:27:02 02:00</time>
      </trkpt>
      <trkpt lat="43.7857" lon="1.89134">
        <ele>213</ele>
        <time>2016-10-09T14:27:46 02:00</time>
      </trkpt>
      <trkpt lat="43.78558" lon="1.89108">
        <ele>210</ele>
        <time>2016-10-09T14:28:06 02:00</time>
      </trkpt>
      <trkpt lat="43.78543" lon="1.89084">
        <ele>207</ele>
        <time>2016-10-09T14:28:26 02:00</time>
      </trkpt>
      <trkpt lat="43.78525" lon="1.89063">
        <ele>205</ele>
        <time>2016-10-09T14:28:47 02:00</time>
      </trkpt>
      <trkpt lat="43.78506" lon="1.89044">
        <ele>202</ele>
        <time>2016-10-09T14:29:06 02:00</time>
      </trkpt>
      <trkpt lat="43.78484" lon="1.89034">
        <ele>202</ele>
        <time>2016-10-09T14:29:24 02:00</time>
      </trkpt>
      <trkpt lat="43.78462" lon="1.89029">
        <ele>202</ele>
        <time>2016-10-09T14:29:41 02:00</time>
      </trkpt>
      <trkpt lat="43.78439" lon="1.89025">
        <ele>202</ele>
        <time>2016-10-09T14:29:59 02:00</time>
      </trkpt>
      <trkpt lat="43.78416" lon="1.8902">
        <ele>202</ele>
        <time>2016-10-09T14:30:18 02:00</time>
      </trkpt>
      <trkpt lat="43.78394" lon="1.89014">
        <ele>201</ele>
        <time>2016-10-09T14:30:37 02:00</time>
      </trkpt>
      <trkpt lat="43.78372" lon="1.89005">
        <ele>200</ele>
        <time>2016-10-09T14:30:57 02:00</time>
      </trkpt>
      <trkpt lat="43.78357" lon="1.88981">
        <ele>200</ele>
        <time>2016-10-09T14:31:16 02:00</time>
      </trkpt>
      <trkpt lat="43.78346" lon="1.88943">
        <ele>203</ele>
        <time>2016-10-09T14:31:49 02:00</time>
      </trkpt>
      <trkpt lat="43.78368" lon="1.88931">
        <ele>204</ele>
        <time>2016-10-09T14:32:20 02:00</time>
      </trkpt>
      <trkpt lat="43.7839" lon="1.88918">
        <ele>206</ele>
        <time>2016-10-09T14:32:40 02:00</time>
      </trkpt>
      <trkpt lat="43.78411" lon="1.88906">
        <ele>207</ele>
        <time>2016-10-09T14:33:03 02:00</time>
      </trkpt>
      <trkpt lat="43.78433" lon="1.88895">
        <ele>208</ele>
        <time>2016-10-09T14:34:11 02:00</time>
      </trkpt>
      <trkpt lat="43.78454" lon="1.88887">
        <ele>209</ele>
        <time>2016-10-09T14:34:31 02:00</time>
      </trkpt>
      <trkpt lat="43.78477" lon="1.88879">
        <ele>210</ele>
        <time>2016-10-09T14:35:01 02:00</time>
      </trkpt>
      <trkpt lat="43.78488" lon="1.88873">
        <ele>211</ele>
        <time>2019-06-26T13:45:05 02:00</time>
      </trkpt>
      <trkpt lat="43.78494" lon="1.88858">
        <ele>212</ele>
        <time>2016-10-09T14:35:23 02:00</time>
      </trkpt>
      <trkpt lat="43.78496" lon="1.88827">
        <ele>215</ele>
        <time>2016-10-09T14:35:44 02:00</time>
      </trkpt>
      <trkpt lat="43.78504" lon="1.88798">
        <ele>217</ele>
        <time>2016-10-09T14:36:06 02:00</time>
      </trkpt>
      <trkpt lat="43.78516" lon="1.8877">
        <ele>218</ele>
        <time>2016-10-09T14:36:28 02:00</time>
      </trkpt>
      <trkpt lat="43.78527" lon="1.88743">
        <ele>219</ele>
        <time>2016-10-09T14:36:49 02:00</time>
      </trkpt>
      <trkpt lat="43.78532" lon="1.88711">
        <ele>220</ele>
        <time>2016-10-09T14:37:12 02:00</time>
      </trkpt>
      <trkpt lat="43.78544" lon="1.88682">
        <ele>220</ele>
        <time>2016-10-09T14:38:50 02:00</time>
      </trkpt>
      <trkpt lat="43.78558" lon="1.88658">
        <ele>221</ele>
        <time>2016-10-09T14:39:12 02:00</time>
      </trkpt>
      <trkpt lat="43.78575" lon="1.88635">
        <ele>222</ele>
        <time>2016-10-09T14:39:34 02:00</time>
      </trkpt>
      <trkpt lat="43.78589" lon="1.88609">
        <ele>223</ele>
        <time>2016-10-09T14:40:05 02:00</time>
      </trkpt>
      <trkpt lat="43.78599" lon="1.88581">
        <ele>223</ele>
        <time>2016-10-09T14:40:26 02:00</time>
      </trkpt>
      <trkpt lat="43.78609" lon="1.88552">
        <ele>225</ele>
        <time>2016-10-09T14:40:46 02:00</time>
      </trkpt>
      <trkpt lat="43.78615" lon="1.88522">
        <ele>228</ele>
        <time>2016-10-09T14:41:08 02:00</time>
      </trkpt>
      <trkpt lat="43.78622" lon="1.8849">
        <ele>231</ele>
        <time>2016-10-09T14:41:30 02:00</time>
      </trkpt>
      <trkpt lat="43.78626" lon="1.88459">
        <ele>237</ele>
        <time>2016-10-09T14:41:51 02:00</time>
      </trkpt>
      <trkpt lat="43.78633" lon="1.88428">
        <ele>242</ele>
        <time>2016-10-09T14:42:16 02:00</time>
      </trkpt>
      <trkpt lat="43.78649" lon="1.88405">
        <ele>244</ele>
        <time>2016-10-09T14:42:36 02:00</time>
      </trkpt>
      <trkpt lat="43.78667" lon="1.88384">
        <ele>245</ele>
        <time>2016-10-09T14:42:56 02:00</time>
      </trkpt>
      <trkpt lat="43.78684" lon="1.88363">
        <ele>246</ele>
        <time>2016-10-09T14:43:17 02:00</time>
      </trkpt>
      <trkpt lat="43.78701" lon="1.88342">
        <ele>247</ele>
        <time>2016-10-09T14:43:39 02:00</time>
      </trkpt>
      <trkpt lat="43.78715" lon="1.88317">
        <ele>249</ele>
        <time>2016-10-09T14:44:01 02:00</time>
      </trkpt>
      <trkpt lat="43.78729" lon="1.88292">
        <ele>251</ele>
        <time>2016-10-09T14:44:22 02:00</time>
      </trkpt>
      <trkpt lat="43.78741" lon="1.88266">
        <ele>253</ele>
        <time>2016-10-09T14:44:45 02:00</time>
      </trkpt>
      <trkpt lat="43.78754" lon="1.88239">
        <ele>256</ele>
        <time>2016-10-09T14:45:10 02:00</time>
      </trkpt>
      <trkpt lat="43.78764" lon="1.8821">
        <ele>260</ele>
        <time>2016-10-09T14:45:52 02:00</time>
      </trkpt>
      <trkpt lat="43.78766" lon="1.88179">
        <ele>266</ele>
        <time>2016-10-09T14:46:11 02:00</time>
      </trkpt>
      <trkpt lat="43.78769" lon="1.88147">
        <ele>270</ele>
        <time>2016-10-09T14:46:31 02:00</time>
      </trkpt>
      <trkpt lat="43.78766" lon="1.88115">
        <ele>274</ele>
        <time>2016-10-09T14:46:57 02:00</time>
      </trkpt>
      <trkpt lat="43.78764" lon="1.88084">
        <ele>277</ele>
        <time>2016-10-09T14:47:23 02:00</time>
      </trkpt>
      <trkpt lat="43.78762" lon="1.88052">
        <ele>278</ele>
        <time>2016-10-09T14:47:50 02:00</time>
      </trkpt>
      <trkpt lat="43.78757" lon="1.88017">
        <ele>278</ele>
        <time>2016-10-09T14:48:19 02:00</time>
      </trkpt>
      <trkpt lat="43.78734" lon="1.88024">
        <ele>277</ele>
        <time>2016-10-09T14:48:51 02:00</time>
      </trkpt>
      <trkpt lat="43.78712" lon="1.88023">
        <ele>277</ele>
        <time>2016-10-09T14:49:10 02:00</time>
      </trkpt>
      <trkpt lat="43.78689" lon="1.88022">
        <ele>277</ele>
        <time>2016-10-09T14:49:30 02:00</time>
      </trkpt>
      <trkpt lat="43.78666" lon="1.88028">
        <ele>278</ele>
        <time>2016-10-09T14:49:50 02:00</time>
      </trkpt>
      <trkpt lat="43.78645" lon="1.88043">
        <ele>278</ele>
        <time>2016-10-09T14:50:10 02:00</time>
      </trkpt>
      <trkpt lat="43.78629" lon="1.88066">
        <ele>279</ele>
        <time>2016-10-09T14:50:42 02:00</time>
      </trkpt>
      <trkpt lat="43.78613" lon="1.88088">
        <ele>281</ele>
        <time>2016-10-09T14:50:58 02:00</time>
      </trkpt>
      <trkpt lat="43.786" lon="1.88113">
        <ele>280</ele>
        <time>2016-10-09T14:51:17 02:00</time>
      </trkpt>
      <trkpt lat="43.78588" lon="1.88087">
        <ele>278</ele>
        <time>2016-10-09T14:51:42 02:00</time>
      </trkpt>
      <trkpt lat="43.78582" lon="1.88056">
        <ele>274</ele>
        <time>2016-10-09T14:52:05 02:00</time>
      </trkpt>
      <trkpt lat="43.78575" lon="1.88026">
        <ele>269</ele>
        <time>2016-10-09T14:52:26 02:00</time>
      </trkpt>
      <trkpt lat="43.78556" lon="1.88008">
        <ele>267</ele>
        <time>2016-10-09T14:52:53 02:00</time>
      </trkpt>
      <trkpt lat="43.78532" lon="1.88004">
        <ele>268</ele>
        <time>2016-10-09T14:53:16 02:00</time>
      </trkpt>
      <trkpt lat="43.78511" lon="1.87996">
        <ele>268</ele>
        <time>2016-10-09T14:53:37 02:00</time>
      </trkpt>
      <trkpt lat="43.78491" lon="1.87978">
        <ele>264</ele>
        <time>2016-10-09T14:53:58 02:00</time>
      </trkpt>
      <trkpt lat="43.78474" lon="1.87956">
        <ele>260</ele>
        <time>2016-10-09T14:54:20 02:00</time>
      </trkpt>
      <trkpt lat="43.78463" lon="1.87928">
        <ele>255</ele>
        <time>2016-10-09T14:54:38 02:00</time>
      </trkpt>
      <trkpt lat="43.78461" lon="1.87911">
        <ele>252</ele>
        <time>2019-06-26T13:49:10 02:00</time>
      </trkpt>
      <trkpt lat="43.78463" lon="1.87896">
        <ele>250</ele>
        <time>2016-10-09T14:54:59 02:00</time>
      </trkpt>
      <trkpt lat="43.7847" lon="1.87874">
        <ele>246</ele>
        <time>2019-06-26T13:49:20 02:00</time>
      </trkpt>
      <trkpt lat="43.78466" lon="1.87865">
        <ele>245</ele>
        <time>2016-10-09T14:55:20 02:00</time>
      </trkpt>
      <trkpt lat="43.78444" lon="1.87852">
        <ele>245</ele>
        <time>2016-10-09T14:55:46 02:00</time>
      </trkpt>
      <trkpt lat="43.78421" lon="1.87846">
        <ele>246</ele>
        <time>2016-10-09T14:56:06 02:00</time>
      </trkpt>
      <trkpt lat="43.78399" lon="1.87838">
        <ele>245</ele>
        <time>2016-10-09T14:56:26 02:00</time>
      </trkpt>
      <trkpt lat="43.78376" lon="1.87833">
        <ele>245</ele>
        <time>2016-10-09T14:56:46 02:00</time>
      </trkpt>
      <trkpt lat="43.78353" lon="1.87831">
        <ele>246</ele>
        <time>2016-10-09T14:57:06 02:00</time>
      </trkpt>
      <trkpt lat="43.7833" lon="1.87832">
        <ele>247</ele>
        <time>2016-10-09T14:57:25 02:00</time>
      </trkpt>
      <trkpt lat="43.78307" lon="1.87832">
        <ele>246</ele>
        <time>2016-10-09T14:57:44 02:00</time>
      </trkpt>
      <trkpt lat="43.78284" lon="1.87832">
        <ele>245</ele>
        <time>2016-10-09T14:58:03 02:00</time>
      </trkpt>
      <trkpt lat="43.78261" lon="1.87831">
        <ele>244</ele>
        <time>2016-10-09T14:58:22 02:00</time>
      </trkpt>
      <trkpt lat="43.78238" lon="1.87831">
        <ele>243</ele>
        <time>2016-10-09T14:58:41 02:00</time>
      </trkpt>
      <trkpt lat="43.78215" lon="1.8783">
        <ele>242</ele>
        <time>2016-10-09T14:59:00 02:00</time>
      </trkpt>
      <trkpt lat="43.78193" lon="1.87831">
        <ele>240</ele>
        <time>2016-10-09T14:59:20 02:00</time>
      </trkpt>
      <trkpt lat="43.78187" lon="1.8785">
        <ele>240</ele>
        <time>2016-10-09T15:08:16 02:00</time>
      </trkpt>
      <trkpt lat="43.7819" lon="1.87875">
        <ele>239</ele>
        <time>2016-10-09T15:12:34 02:00</time>
      </trkpt>
      <trkpt lat="43.78189" lon="1.87893">
        <ele>239</ele>
        <time>2019-06-26T13:50:40 02:00</time>
      </trkpt>
      <trkpt lat="43.78182" lon="1.87905">
        <ele>237</ele>
        <time>2016-10-09T15:12:55 02:00</time>
      </trkpt>
      <trkpt lat="43.78161" lon="1.8792">
        <ele>233</ele>
        <time>2016-10-09T15:13:17 02:00</time>
      </trkpt>
      <trkpt lat="43.78141" lon="1.87936">
        <ele>229</ele>
        <time>2016-10-09T15:13:38 02:00</time>
      </trkpt>
      <trkpt lat="43.78121" lon="1.87952">
        <ele>226</ele>
        <time>2016-10-09T15:13:57 02:00</time>
      </trkpt>
      <trkpt lat="43.781" lon="1.87968">
        <ele>223</ele>
        <time>2016-10-09T15:14:15 02:00</time>
      </trkpt>
      <trkpt lat="43.7808" lon="1.87983">
        <ele>220</ele>
        <time>2016-10-09T15:14:34 02:00</time>
      </trkpt>
      <trkpt lat="43.78057" lon="1.87989">
        <ele>219</ele>
        <time>2016-10-09T15:14:51 02:00</time>
      </trkpt>
      <trkpt lat="43.78035" lon="1.87982">
        <ele>217</ele>
        <time>2016-10-09T15:15:09 02:00</time>
      </trkpt>
      <trkpt lat="43.78014" lon="1.87971">
        <ele>215</ele>
        <time>2016-10-09T15:15:28 02:00</time>
      </trkpt>
      <trkpt lat="43.77991" lon="1.87977">
        <ele>214</ele>
        <time>2016-10-09T15:15:46 02:00</time>
      </trkpt>
      <trkpt lat="43.77972" lon="1.87994">
        <ele>215</ele>
        <time>2016-10-09T15:16:04 02:00</time>
      </trkpt>
      <trkpt lat="43.7795" lon="1.88005">
        <ele>216</ele>
        <time>2016-10-09T15:16:22 02:00</time>
      </trkpt>
      <trkpt lat="43.77929" lon="1.88018">
        <ele>216</ele>
        <time>2016-10-09T15:16:42 02:00</time>
      </trkpt>
      <trkpt lat="43.77901" lon="1.88025">
        <ele>215</ele>
        <time>2016-10-09T15:17:03 02:00</time>
      </trkpt>
      <trkpt lat="43.77905" lon="1.88058">
        <ele>216</ele>
        <time>2016-10-09T15:17:27 02:00</time>
      </trkpt>
      <trkpt lat="43.77909" lon="1.88088">
        <ele>217</ele>
        <time>2016-10-09T15:17:46 02:00</time>
      </trkpt>
      <trkpt lat="43.77913" lon="1.88119">
        <ele>219</ele>
        <time>2016-10-09T15:18:06 02:00</time>
      </trkpt>
      <trkpt lat="43.77917" lon="1.88151">
        <ele>221</ele>
        <time>2016-10-09T15:18:30 02:00</time>
      </trkpt>
      <trkpt lat="43.77926" lon="1.8818">
        <ele>223</ele>
        <time>2016-10-09T15:18:53 02:00</time>
      </trkpt>
      <trkpt lat="43.77938" lon="1.88206">
        <ele>226</ele>
        <time>2016-10-09T15:19:14 02:00</time>
      </trkpt>
      <trkpt lat="43.77952" lon="1.88231">
        <ele>228</ele>
        <time>2016-10-09T15:19:35 02:00</time>
      </trkpt>
      <trkpt lat="43.77969" lon="1.88254">
        <ele>231</ele>
        <time>2016-10-09T15:19:58 02:00</time>
      </trkpt>
      <trkpt lat="43.77988" lon="1.88274">
        <ele>231</ele>
        <time>2016-10-09T15:20:21 02:00</time>
      </trkpt>
      <trkpt lat="43.78003" lon="1.88299">
        <ele>229</ele>
        <time>2016-10-09T15:20:45 02:00</time>
      </trkpt>
      <trkpt lat="43.78016" lon="1.88325">
        <ele>227</ele>
        <time>2016-10-09T15:21:11 02:00</time>
      </trkpt>
      <trkpt lat="43.78027" lon="1.88354">
        <ele>226</ele>
        <time>2016-10-09T15:21:29 02:00</time>
      </trkpt>
      <trkpt lat="43.78034" lon="1.88384">
        <ele>224</ele>
        <time>2016-10-09T15:21:50 02:00</time>
      </trkpt>
      <trkpt lat="43.78034" lon="1.88415">
        <ele>220</ele>
        <time>2016-10-09T15:22:07 02:00</time>
      </trkpt>
      <trkpt lat="43.78034" lon="1.88447">
        <ele>217</ele>
        <time>2016-10-09T15:22:23 02:00</time>
      </trkpt>
      <trkpt lat="43.78034" lon="1.8848">
        <ele>214</ele>
        <time>2016-10-09T15:22:40 02:00</time>
      </trkpt>
      <trkpt lat="43.78036" lon="1.88511">
        <ele>212</ele>
        <time>2016-10-09T15:22:58 02:00</time>
      </trkpt>
      <trkpt lat="43.7804" lon="1.88543">
        <ele>209</ele>
        <time>2016-10-09T15:23:17 02:00</time>
      </trkpt>
      <trkpt lat="43.78044" lon="1.88563">
        <ele>207</ele>
        <time>2019-06-26T13:53:25 02:00</time>
      </trkpt>
      <trkpt lat="43.7806" lon="1.88574">
        <ele>207</ele>
        <time>2016-10-09T15:23:38 02:00</time>
      </trkpt>
      <trkpt lat="43.78082" lon="1.8858">
        <ele>208</ele>
        <time>2016-10-09T15:23:56 02:00</time>
      </trkpt>
      <trkpt lat="43.78102" lon="1.88591">
        <ele>207</ele>
        <time>2016-10-09T15:24:20 02:00</time>
      </trkpt>
      <trkpt lat="43.78114" lon="1.88618">
        <ele>204</ele>
        <time>2016-10-09T15:24:37 02:00</time>
      </trkpt>
      <trkpt lat="43.78119" lon="1.8865">
        <ele>201</ele>
        <time>2016-10-09T15:24:53 02:00</time>
      </trkpt>
      <trkpt lat="43.78122" lon="1.88672">
        <ele>200</ele>
        <time>2019-06-26T13:53:55 02:00</time>
      </trkpt>
      <trkpt lat="43.78131" lon="1.88683">
        <ele>200</ele>
        <time>2016-10-09T15:25:09 02:00</time>
      </trkpt>
      <trkpt lat="43.78148" lon="1.88702">
        <ele>199</ele>
        <time>2016-10-09T15:25:29 02:00</time>
      </trkpt>
      <trkpt lat="43.78168" lon="1.88721">
        <ele>199</ele>
        <time>2016-10-09T15:25:51 02:00</time>
      </trkpt>
      <trkpt lat="43.78185" lon="1.88739">
        <ele>198</ele>
        <time>2016-10-09T15:26:10 02:00</time>
      </trkpt>
      <trkpt lat="43.78201" lon="1.88764">
        <ele>197</ele>
        <time>2016-10-09T15:26:26 02:00</time>
      </trkpt>
      <trkpt lat="43.78214" lon="1.88791">
        <ele>197</ele>
        <time>2016-10-09T15:26:43 02:00</time>
      </trkpt>
      <trkpt lat="43.78221" lon="1.8882">
        <ele>196</ele>
        <time>2016-10-09T15:27:00 02:00</time>
      </trkpt>
      <trkpt lat="43.78232" lon="1.8885">
        <ele>195</ele>
        <time>2016-10-09T15:27:18 02:00</time>
      </trkpt>
      <trkpt lat="43.78249" lon="1.8887">
        <ele>196</ele>
        <time>2016-10-09T15:27:37 02:00</time>
      </trkpt>
      <trkpt lat="43.78271" lon="1.88884">
        <ele>198</ele>
        <time>2016-10-09T15:27:58 02:00</time>
      </trkpt>
      <trkpt lat="43.78281" lon="1.88887">
        <ele>199</ele>
        <time>2019-06-26T13:54:50 02:00</time>
      </trkpt>
      <trkpt lat="43.78292" lon="1.88892">
        <ele>201</ele>
        <time>2016-10-09T15:28:17 02:00</time>
      </trkpt>
      <trkpt lat="43.78314" lon="1.88904">
        <ele>203</ele>
        <time>2016-10-09T15:28:35 02:00</time>
      </trkpt>
      <trkpt lat="43.78333" lon="1.88921">
        <ele>205</ele>
        <time>2016-10-09T15:28:55 02:00</time>
      </trkpt>
      <trkpt lat="43.78346" lon="1.88942">
        <ele>203</ele>
        <time>2016-10-09T15:29:18 02:00</time>
      </trkpt>
      <trkpt lat="43.78355" lon="1.88978">
        <ele>200</ele>
        <time>2016-10-09T15:29:37 02:00</time>
      </trkpt>
      <trkpt lat="43.78369" lon="1.89003">
        <ele>200</ele>
        <time>2016-10-09T15:29:54 02:00</time>
      </trkpt>
      <trkpt lat="43.78393" lon="1.89013">
        <ele>201</ele>
        <time>2016-10-09T15:30:15 02:00</time>
      </trkpt>
      <trkpt lat="43.78415" lon="1.8902">
        <ele>202</ele>
        <time>2016-10-09T15:30:35 02:00</time>
      </trkpt>
      <trkpt lat="43.78438" lon="1.89023">
        <ele>202</ele>
        <time>2016-10-09T15:30:55 02:00</time>
      </trkpt>
      <trkpt lat="43.7846" lon="1.89029">
        <ele>202</ele>
        <time>2016-10-09T15:31:16 02:00</time>
      </trkpt>
      <trkpt lat="43.78483" lon="1.89035">
        <ele>202</ele>
        <time>2016-10-09T15:31:36 02:00</time>
      </trkpt>
      <trkpt lat="43.78506" lon="1.89044">
        <ele>202</ele>
        <time>2016-10-09T15:31:57 02:00</time>
      </trkpt>
      <trkpt lat="43.78525" lon="1.89064">
        <ele>205</ele>
        <time>2016-10-09T15:32:18 02:00</time>
      </trkpt>
      <trkpt lat="43.78543" lon="1.89083">
        <ele>207</ele>
        <time>2016-10-09T15:32:37 02:00</time>
      </trkpt>
      <trkpt lat="43.78558" lon="1.89106">
        <ele>210</ele>
        <time>2016-10-09T15:32:58 02:00</time>
      </trkpt>
      <trkpt lat="43.78571" lon="1.89135">
        <ele>213</ele>
        <time>2016-10-09T15:33:19 02:00</time>
      </trkpt>
      <trkpt lat="43.78579" lon="1.89157">
        <ele>215</ele>
        <time>2019-06-26T13:56:15 02:00</time>
      </trkpt>
      <trkpt lat="43.78561" lon="1.89159">
        <ele>216</ele>
        <time>2016-10-09T15:34:14 02:00</time>
      </trkpt>
      <trkpt lat="43.78544" lon="1.89159">
        <ele>217</ele>
        <time>2019-06-26T13:56:25 02:00</time>
      </trkpt>
      <trkpt lat="43.78541" lon="1.89176">
        <ele>220</ele>
        <time>2016-10-09T15:34:44 02:00</time>
      </trkpt>
      <trkpt lat="43.78545" lon="1.89207">
        <ele>223</ele>
        <time>2016-10-09T15:35:09 02:00</time>
      </trkpt>
      <trkpt lat="43.78522" lon="1.89206">
        <ele>225</ele>
        <time>2016-10-09T15:35:43 02:00</time>
      </trkpt>
      <trkpt lat="43.78501" lon="1.89215">
        <ele>228</ele>
        <time>2016-10-09T15:36:12 02:00</time>
      </trkpt>
      <trkpt lat="43.78484" lon="1.89236">
        <ele>231</ele>
        <time>2016-10-09T15:36:40 02:00</time>
      </trkpt>
      <trkpt lat="43.78491" lon="1.89266">
        <ele>234</ele>
        <time>2016-10-09T15:37:04 02:00</time>
      </trkpt>
      <trkpt lat="43.78487" lon="1.89298">
        <ele>237</ele>
        <time>2016-10-09T15:37:31 02:00</time>
      </trkpt>
      <trkpt lat="43.7848" lon="1.89329">
        <ele>240</ele>
        <time>2016-10-09T15:37:56 02:00</time>
      </trkpt>
      <trkpt lat="43.78475" lon="1.89359">
        <ele>242</ele>
        <time>2016-10-09T15:38:18 02:00</time>
      </trkpt>
      <trkpt lat="43.7847" lon="1.8939">
        <ele>245</ele>
        <time>2016-10-09T15:38:42 02:00</time>
      </trkpt>
      <trkpt lat="43.78463" lon="1.8942">
        <ele>247</ele>
        <time>2016-10-09T15:39:05 02:00</time>
      </trkpt>
      <trkpt lat="43.78459" lon="1.89451">
        <ele>249</ele>
        <time>2016-10-09T15:39:28 02:00</time>
      </trkpt>
      <trkpt lat="43.7846" lon="1.89483">
        <ele>251</ele>
        <time>2016-10-09T15:39:50 02:00</time>
      </trkpt>
      <trkpt lat="43.78461" lon="1.89515">
        <ele>253</ele>
        <time>2016-10-09T15:40:12 02:00</time>
      </trkpt>
      <trkpt lat="43.78465" lon="1.89546">
        <ele>255</ele>
        <time>2016-10-09T15:40:36 02:00</time>
      </trkpt>
      <trkpt lat="43.78472" lon="1.89575">
        <ele>257</ele>
        <time>2016-10-09T15:41:54 02:00</time>
      </trkpt>
      <trkpt lat="43.78479" lon="1.89609">
        <ele>257</ele>
        <time>2016-10-09T15:42:17 02:00</time>
      </trkpt>
      <trkpt lat="43.78492" lon="1.89633">
        <ele>257</ele>
        <time>2016-10-09T15:42:37 02:00</time>
      </trkpt>
      <trkpt lat="43.78507" lon="1.89658">
        <ele>257</ele>
        <time>2016-10-09T15:44:20 02:00</time>
      </trkpt>
      <trkpt lat="43.78528" lon="1.89668">
        <ele>255</ele>
        <time>2016-10-09T15:44:46 02:00</time>
      </trkpt>
      <trkpt lat="43.78563" lon="1.89639">
        <ele>252</ele>
        <time>2016-10-09T15:45:09 02:00</time>
      </trkpt>
      <trkpt lat="43.78552" lon="1.89683">
        <ele>252</ele>
        <time>2016-10-09T15:50:29 02:00</time>
      </trkpt>
      <trkpt lat="43.7854" lon="1.8971">
        <ele>251</ele>
        <time>2016-10-09T15:50:57 02:00</time>
      </trkpt>
      <trkpt lat="43.7852" lon="1.89725">
        <ele>251</ele>
        <time>2016-10-09T15:51:18 02:00</time>
      </trkpt>
      <trkpt lat="43.78498" lon="1.89729">
        <ele>251</ele>
        <time>2016-10-09T15:52:03 02:00</time>
      </trkpt>
      <trkpt lat="43.78475" lon="1.89727">
        <ele>250</ele>
        <time>2016-10-09T15:52:36 02:00</time>
      </trkpt>
      <trkpt lat="43.78452" lon="1.89726">
        <ele>249</ele>
        <time>2016-10-09T15:52:56 02:00</time>
      </trkpt>
      <trkpt lat="43.78429" lon="1.89722">
        <ele>248</ele>
        <time>2016-10-09T15:53:15 02:00</time>
      </trkpt>
      <trkpt lat="43.78406" lon="1.8972">
        <ele>246</ele>
        <time>2016-10-09T15:53:35 02:00</time>
      </trkpt>
      <trkpt lat="43.78382" lon="1.89717">
        <ele>243</ele>
        <time>2016-10-09T15:53:54 02:00</time>
      </trkpt>
      <trkpt lat="43.7836" lon="1.89715">
        <ele>241</ele>
        <time>2016-10-09T15:54:13 02:00</time>
      </trkpt>
      <trkpt lat="43.78337" lon="1.8972">
        <ele>238</ele>
        <time>2016-10-09T15:54:32 02:00</time>
      </trkpt>
      <trkpt lat="43.78315" lon="1.89728">
        <ele>236</ele>
        <time>2016-10-09T15:54:55 02:00</time>
      </trkpt>
      <trkpt lat="43.78295" lon="1.89743">
        <ele>235</ele>
        <time>2016-10-09T15:55:13 02:00</time>
      </trkpt>
      <trkpt lat="43.78275" lon="1.8976">
        <ele>233</ele>
        <time>2016-10-09T15:55:32 02:00</time>
      </trkpt>
      <trkpt lat="43.78257" lon="1.89779">
        <ele>232</ele>
        <time>2016-10-09T15:55:51 02:00</time>
      </trkpt>
      <trkpt lat="43.78238" lon="1.89798">
        <ele>231</ele>
        <time>2016-10-09T15:56:09 02:00</time>
      </trkpt>
      <trkpt lat="43.78218" lon="1.89814">
        <ele>230</ele>
        <time>2016-10-09T15:56:29 02:00</time>
      </trkpt>
      <trkpt lat="43.78198" lon="1.89832">
        <ele>229</ele>
        <time>2016-10-09T15:56:49 02:00</time>
      </trkpt>
      <trkpt lat="43.78177" lon="1.89847">
        <ele>228</ele>
        <time>2016-10-09T15:57:08 02:00</time>
      </trkpt>
      <trkpt lat="43.78155" lon="1.89855">
        <ele>227</ele>
        <time>2016-10-09T15:57:26 02:00</time>
      </trkpt>
      <trkpt lat="43.78131" lon="1.89857">
        <ele>226</ele>
        <time>2016-10-09T15:57:45 02:00</time>
      </trkpt>
      <trkpt lat="43.78108" lon="1.89858">
        <ele>226</ele>
        <time>2016-10-09T15:58:03 02:00</time>
      </trkpt>
      <trkpt lat="43.78086" lon="1.89865">
        <ele>225</ele>
        <time>2016-10-09T15:58:21 02:00</time>
      </trkpt>
      <trkpt lat="43.78063" lon="1.89874">
        <ele>225</ele>
        <time>2016-10-09T15:58:40 02:00</time>
      </trkpt>
      <trkpt lat="43.7804" lon="1.89882">
        <ele>224</ele>
        <time>2016-10-09T15:58:58 02:00</time>
      </trkpt>
      <trkpt lat="43.78018" lon="1.89889">
        <ele>223</ele>
        <time>2016-10-09T15:59:16 02:00</time>
      </trkpt>
      <trkpt lat="43.77995" lon="1.89893">
        <ele>222</ele>
        <time>2016-10-09T15:59:34 02:00</time>
      </trkpt>
      <trkpt lat="43.77971" lon="1.89895">
        <ele>222</ele>
        <time>2016-10-09T15:59:54 02:00</time>
      </trkpt>
      <trkpt lat="43.77948" lon="1.89902">
        <ele>222</ele>
        <time>2016-10-09T16:00:14 02:00</time>
      </trkpt>
      <trkpt lat="43.77931" lon="1.89925">
        <ele>221</ele>
        <time>2016-10-09T16:00:38 02:00</time>
      </trkpt>
      <trkpt lat="43.77916" lon="1.8995">
        <ele>218</ele>
        <time>2016-10-09T16:00:58 02:00</time>
      </trkpt>
      <trkpt lat="43.77902" lon="1.89968">
        <ele>217</ele>
        <time>2016-10-09T16:01:18 02:00</time>
      </trkpt>
      <trkpt lat="43.77889" lon="1.89998">
        <ele>215</ele>
        <time>2016-10-09T16:01:37 02:00</time>
      </trkpt>
      <trkpt lat="43.77881" lon="1.90028">
        <ele>212</ele>
        <time>2016-10-09T16:01:56 02:00</time>
      </trkpt>
      <trkpt lat="43.77874" lon="1.9006">
        <ele>209</ele>
        <time>2016-10-09T16:02:17 02:00</time>
      </trkpt>
      <trkpt lat="43.77867" lon="1.90091">
        <ele>206</ele>
        <time>2016-10-09T16:02:36 02:00</time>
      </trkpt>
      <trkpt lat="43.7786" lon="1.9012">
        <ele>204</ele>
        <time>2016-10-09T16:02:55 02:00</time>
      </trkpt>
      <trkpt lat="43.77853" lon="1.90151">
        <ele>202</ele>
        <time>2016-10-09T16:03:15 02:00</time>
      </trkpt>
      <trkpt lat="43.77846" lon="1.9018">
        <ele>199</ele>
        <time>2016-10-09T16:03:36 02:00</time>
      </trkpt>
      <trkpt lat="43.77837" lon="1.90209">
        <ele>195</ele>
        <time>2016-10-09T16:03:56 02:00</time>
      </trkpt>
      <trkpt lat="43.77822" lon="1.90234">
        <ele>192</ele>
        <time>2016-10-09T16:04:15 02:00</time>
      </trkpt>
      <trkpt lat="43.77805" lon="1.90253">
        <ele>190</ele>
        <time>2016-10-09T16:04:34 02:00</time>
      </trkpt>
      <trkpt lat="43.77785" lon="1.90271">
        <ele>189</ele>
        <time>2016-10-09T16:04:53 02:00</time>
      </trkpt>
      <trkpt lat="43.77766" lon="1.90287">
        <ele>187</ele>
        <time>2016-10-09T16:05:17 02:00</time>
      </trkpt>
      <trkpt lat="43.77755" lon="1.90315">
        <ele>184</ele>
        <time>2016-10-09T16:05:39 02:00</time>
      </trkpt>
      <trkpt lat="43.77741" lon="1.9034">
        <ele>180</ele>
        <time>2016-10-09T16:05:57 02:00</time>
      </trkpt>
      <trkpt lat="43.7772" lon="1.90353">
        <ele>178</ele>
        <time>2016-10-09T16:06:17 02:00</time>
      </trkpt>
      <trkpt lat="43.7774" lon="1.90369">
        <ele>178</ele>
        <time>2016-10-09T16:07:19 02:00</time>
      </trkpt>
      <trkpt lat="43.77763" lon="1.90379">
        <ele>179</ele>
        <time>2016-10-09T16:07:38 02:00</time>
      </trkpt>
      <trkpt lat="43.77783" lon="1.90394">
        <ele>179</ele>
        <time>2016-10-09T16:07:57 02:00</time>
      </trkpt>
      <trkpt lat="43.77801" lon="1.90413">
        <ele>180</ele>
        <time>2016-10-09T16:08:16 02:00</time>
      </trkpt>
      <trkpt lat="43.77815" lon="1.90438">
        <ele>180</ele>
        <time>2016-10-09T16:08:35 02:00</time>
      </trkpt>
      <trkpt lat="43.77828" lon="1.90463">
        <ele>180</ele>
        <time>2016-10-09T16:08:54 02:00</time>
      </trkpt>
      <trkpt lat="43.77844" lon="1.90486">
        <ele>181</ele>
        <time>2016-10-09T16:09:13 02:00</time>
      </trkpt>
      <trkpt lat="43.77863" lon="1.90503">
        <ele>182</ele>
        <time>2016-10-09T16:09:34 02:00</time>
      </trkpt>
      <trkpt lat="43.77885" lon="1.90514">
        <ele>184</ele>
        <time>2016-10-09T16:09:55 02:00</time>
      </trkpt>
      <trkpt lat="43.77908" lon="1.90519">
        <ele>186</ele>
        <time>2016-10-09T16:10:16 02:00</time>
      </trkpt>
      <trkpt lat="43.77931" lon="1.90515">
        <ele>187</ele>
        <time>2016-10-09T16:10:35 02:00</time>
      </trkpt>
      <trkpt lat="43.7795" lon="1.90498">
        <ele>188</ele>
        <time>2016-10-09T16:10:55 02:00</time>
      </trkpt>
      <trkpt lat="43.77964" lon="1.90472">
        <ele>188</ele>
        <time>2016-10-09T16:11:14 02:00</time>
      </trkpt>
      <trkpt lat="43.77978" lon="1.90446">
        <ele>189</ele>
        <time>2016-10-09T16:11:34 02:00</time>
      </trkpt>
      <trkpt lat="43.77998" lon="1.90428">
        <ele>189</ele>
        <time>2016-10-09T16:11:53 02:00</time>
      </trkpt>
      <trkpt lat="43.78012" lon="1.90404">
        <ele>190</ele>
        <time>2016-10-09T16:12:13 02:00</time>
      </trkpt>
      <trkpt lat="43.78028" lon="1.9038">
        <ele>191</ele>
        <time>2016-10-09T16:12:33 02:00</time>
      </trkpt>
      <trkpt lat="43.78051" lon="1.90384">
        <ele>193</ele>
        <time>2016-10-09T16:12:54 02:00</time>
      </trkpt>
      <trkpt lat="43.78065" lon="1.90409">
        <ele>192</ele>
        <time>2016-10-09T16:13:13 02:00</time>
      </trkpt>
      <trkpt lat="43.78071" lon="1.9044">
        <ele>192</ele>
        <time>2016-10-09T16:13:32 02:00</time>
      </trkpt>
      <trkpt lat="43.78073" lon="1.90472">
        <ele>192</ele>
        <time>2016-10-09T16:13:52 02:00</time>
      </trkpt>
      <trkpt lat="43.78078" lon="1.90504">
        <ele>193</ele>
        <time>2016-10-09T16:14:13 02:00</time>
      </trkpt>
      <trkpt lat="43.78093" lon="1.90527">
        <ele>193</ele>
        <time>2016-10-09T16:19:00 02:00</time>
      </trkpt>
      <trkpt lat="43.78116" lon="1.90536">
        <ele>193</ele>
        <time>2016-10-09T16:19:21 02:00</time>
      </trkpt>
      <trkpt lat="43.78136" lon="1.90551">
        <ele>192</ele>
        <time>2016-10-09T16:19:42 02:00</time>
      </trkpt>
      <trkpt lat="43.78158" lon="1.90563">
        <ele>191</ele>
        <time>2016-10-09T16:20:00 02:00</time>
      </trkpt>
      <trkpt lat="43.78178" lon="1.90581">
        <ele>189</ele>
        <time>2016-10-09T16:20:22 02:00</time>
      </trkpt>
      <trkpt lat="43.78193" lon="1.90604">
        <ele>189</ele>
        <time>2016-10-09T16:20:39 02:00</time>
      </trkpt>
      <trkpt lat="43.78199" lon="1.90635">
        <ele>189</ele>
        <time>2016-10-09T16:20:57 02:00</time>
      </trkpt>
      <trkpt lat="43.7819" lon="1.90664">
        <ele>189</ele>
        <time>2016-10-09T16:21:15 02:00</time>
      </trkpt>
      <trkpt lat="43.78178" lon="1.90692">
        <ele>190</ele>
        <time>2016-10-09T16:21:35 02:00</time>
      </trkpt>
      <trkpt lat="43.78168" lon="1.90721">
        <ele>192</ele>
        <time>2016-10-09T16:21:55 02:00</time>
      </trkpt>
      <trkpt lat="43.78155" lon="1.90746">
        <ele>195</ele>
        <time>2016-10-09T16:22:13 02:00</time>
      </trkpt>
      <trkpt lat="43.78142" lon="1.90772">
        <ele>198</ele>
        <time>2016-10-09T16:22:32 02:00</time>
      </trkpt>
      <trkpt lat="43.78128" lon="1.90799">
        <ele>201</ele>
        <time>2016-10-09T16:22:52 02:00</time>
      </trkpt>
      <trkpt lat="43.78115" lon="1.90824">
        <ele>204</ele>
        <time>2016-10-09T16:23:11 02:00</time>
      </trkpt>
      <trkpt lat="43.78103" lon="1.9085">
        <ele>205</ele>
        <time>2016-10-09T16:23:30 02:00</time>
      </trkpt>
      <trkpt lat="43.78091" lon="1.90878">
        <ele>206</ele>
        <time>2016-10-09T16:23:50 02:00</time>
      </trkpt>
      <trkpt lat="43.78087" lon="1.90909">
        <ele>205</ele>
        <time>2016-10-09T16:24:11 02:00</time>
      </trkpt>
      <trkpt lat="43.78085" lon="1.90941">
        <ele>207</ele>
        <time>2016-10-09T16:24:32 02:00</time>
      </trkpt>
      <trkpt lat="43.78086" lon="1.90973">
        <ele>209</ele>
        <time>2016-10-09T16:24:53 02:00</time>
      </trkpt>
      <trkpt lat="43.78086" lon="1.91004">
        <ele>211</ele>
        <time>2016-10-09T16:25:15 02:00</time>
      </trkpt>
      <trkpt lat="43.7809" lon="1.91035">
        <ele>213</ele>
        <time>2016-10-09T16:25:36 02:00</time>
      </trkpt>
      <trkpt lat="43.78086" lon="1.91067">
        <ele>214</ele>
        <time>2016-10-09T16:25:56 02:00</time>
      </trkpt>
      <trkpt lat="43.78075" lon="1.91095">
        <ele>214</ele>
        <time>2016-10-09T16:26:15 02:00</time>
      </trkpt>
      <trkpt lat="43.78057" lon="1.91116">
        <ele>215</ele>
        <time>2016-10-09T16:26:33 02:00</time>
      </trkpt>
      <trkpt lat="43.78042" lon="1.9114">
        <ele>216</ele>
        <time>2016-10-09T16:26:52 02:00</time>
      </trkpt>
      <trkpt lat="43.78024" lon="1.91161">
        <ele>216</ele>
        <time>2016-10-09T16:27:12 02:00</time>
      </trkpt>
      <trkpt lat="43.7801" lon="1.91186">
        <ele>216</ele>
        <time>2016-10-09T16:27:32 02:00</time>
      </trkpt>
      <trkpt lat="43.77993" lon="1.91208">
        <ele>215</ele>
        <time>2016-10-09T16:27:54 02:00</time>
      </trkpt>
      <trkpt lat="43.77978" lon="1.91232">
        <ele>215</ele>
        <time>2016-10-09T16:28:17 02:00</time>
      </trkpt>
      <trkpt lat="43.7796" lon="1.91255">
        <ele>214</ele>
        <time>2016-10-09T16:28:36 02:00</time>
      </trkpt>
      <trkpt lat="43.77945" lon="1.91279">
        <ele>214</ele>
        <time>2016-10-09T16:28:57 02:00</time>
      </trkpt>
      <trkpt lat="43.77927" lon="1.91301">
        <ele>214</ele>
        <time>2016-10-09T16:29:16 02:00</time>
      </trkpt>
      <trkpt lat="43.77912" lon="1.91324">
        <ele>213</ele>
        <time>2016-10-09T16:29:35 02:00</time>
      </trkpt>
      <trkpt lat="43.77891" lon="1.9134">
        <ele>213</ele>
        <time>2016-10-09T16:29:51 02:00</time>
      </trkpt>
      <trkpt lat="43.77878" lon="1.91366">
        <ele>212</ele>
        <time>2016-10-09T16:30:10 02:00</time>
      </trkpt>
      <trkpt lat="43.77871" lon="1.91395">
        <ele>212</ele>
        <time>2016-10-09T16:30:29 02:00</time>
      </trkpt>
      <trkpt lat="43.77863" lon="1.91426">
        <ele>211</ele>
        <time>2016-10-09T16:30:49 02:00</time>
      </trkpt>
      <trkpt lat="43.77853" lon="1.91455">
        <ele>211</ele>
        <time>2016-10-09T16:34:54 02:00</time>
      </trkpt>
      <trkpt lat="43.77848" lon="1.91486">
        <ele>210</ele>
        <time>2016-10-09T16:35:13 02:00</time>
      </trkpt>
      <trkpt lat="43.77836" lon="1.91517">
        <ele>209</ele>
        <time>2016-10-09T16:35:31 02:00</time>
      </trkpt>
      <trkpt lat="43.77828" lon="1.91548">
        <ele>207</ele>
        <time>2016-10-09T16:36:02 02:00</time>
      </trkpt>
      <trkpt lat="43.77818" lon="1.91577">
        <ele>206</ele>
        <time>2016-10-09T16:36:21 02:00</time>
      </trkpt>
      <trkpt lat="43.77806" lon="1.91603">
        <ele>206</ele>
        <time>2016-10-09T16:36:39 02:00</time>
      </trkpt>
      <trkpt lat="43.77794" lon="1.91631">
        <ele>206</ele>
        <time>2016-10-09T16:36:58 02:00</time>
      </trkpt>
      <trkpt lat="43.77781" lon="1.91658">
        <ele>206</ele>
        <time>2016-10-09T16:37:16 02:00</time>
      </trkpt>
      <trkpt lat="43.77769" lon="1.91685">
        <ele>206</ele>
        <time>2016-10-09T16:37:33 02:00</time>
      </trkpt>
      <trkpt lat="43.77756" lon="1.91713">
        <ele>207</ele>
        <time>2016-10-09T16:37:51 02:00</time>
      </trkpt>
      <trkpt lat="43.77747" lon="1.91744">
        <ele>207</ele>
        <time>2016-10-09T16:38:12 02:00</time>
      </trkpt>
      <trkpt lat="43.77723" lon="1.91791">
        <ele>209</ele>
        <time>2016-10-09T16:38:32 02:00</time>
      </trkpt>
      <trkpt lat="43.77755" lon="1.91789">
        <ele>204</ele>
        <time>2016-10-09T16:39:08 02:00</time>
      </trkpt>
      <trkpt lat="43.77777" lon="1.91796">
        <ele>203</ele>
        <time>2016-10-09T16:39:27 02:00</time>
      </trkpt>
      <trkpt lat="43.77799" lon="1.91807">
        <ele>201</ele>
        <time>2016-10-09T16:39:44 02:00</time>
      </trkpt>
      <trkpt lat="43.77821" lon="1.91816">
        <ele>200</ele>
        <time>2016-10-09T16:40:02 02:00</time>
      </trkpt>
      <trkpt lat="43.77844" lon="1.9182">
        <ele>200</ele>
        <time>2016-10-09T16:40:20 02:00</time>
      </trkpt>
      <trkpt lat="43.77866" lon="1.91826">
        <ele>201</ele>
        <time>2016-10-09T16:40:38 02:00</time>
      </trkpt>
      <trkpt lat="43.7789" lon="1.9183">
        <ele>203</ele>
        <time>2016-10-09T16:40:58 02:00</time>
      </trkpt>
      <trkpt lat="43.77913" lon="1.91833">
        <ele>204</ele>
        <time>2016-10-09T16:41:18 02:00</time>
      </trkpt>
      <trkpt lat="43.77936" lon="1.91836">
        <ele>206</ele>
        <time>2016-10-09T16:41:38 02:00</time>
      </trkpt>
      <trkpt lat="43.77958" lon="1.9184">
        <ele>209</ele>
        <time>2016-10-09T16:41:59 02:00</time>
      </trkpt>
      <trkpt lat="43.7798" lon="1.91847">
        <ele>211</ele>
        <time>2016-10-09T16:42:20 02:00</time>
      </trkpt>
      <trkpt lat="43.78003" lon="1.91848">
        <ele>214</ele>
        <time>2016-10-09T16:42:43 02:00</time>
      </trkpt>
      <trkpt lat="43.7802" lon="1.91869">
        <ele>216</ele>
        <time>2016-10-09T16:45:45 02:00</time>
      </trkpt>
      <trkpt lat="43.7803" lon="1.91898">
        <ele>218</ele>
        <time>2016-10-09T16:46:13 02:00</time>
      </trkpt>
      <trkpt lat="43.78038" lon="1.91927">
        <ele>220</ele>
        <time>2016-10-09T16:46:35 02:00</time>
      </trkpt>
      <trkpt lat="43.78051" lon="1.91954">
        <ele>222</ele>
        <time>2016-10-09T16:46:56 02:00</time>
      </trkpt>
      <trkpt lat="43.78067" lon="1.91977">
        <ele>225</ele>
        <time>2016-10-09T16:47:17 02:00</time>
      </trkpt>
      <trkpt lat="43.78083" lon="1.91999">
        <ele>227</ele>
        <time>2016-10-09T16:47:39 02:00</time>
      </trkpt>
      <trkpt lat="43.781" lon="1.9202">
        <ele>227</ele>
        <time>2016-10-09T16:47:59 02:00</time>
      </trkpt>
      <trkpt lat="43.78118" lon="1.92041">
        <ele>226</ele>
        <time>2016-10-09T16:48:24 02:00</time>
      </trkpt>
      <trkpt lat="43.78139" lon="1.92053">
        <ele>225</ele>
        <time>2016-10-09T16:48:48 02:00</time>
      </trkpt>
      <trkpt lat="43.7816" lon="1.9204">
        <ele>227</ele>
        <time>2016-10-09T16:49:14 02:00</time>
      </trkpt>
      <trkpt lat="43.78181" lon="1.92027">
        <ele>229</ele>
        <time>2016-10-09T16:49:34 02:00</time>
      </trkpt>
      <trkpt lat="43.78199" lon="1.92008">
        <ele>233</ele>
        <time>2016-10-09T16:49:58 02:00</time>
      </trkpt>
      <trkpt lat="43.78218" lon="1.9199">
        <ele>236</ele>
        <time>2016-10-09T16:50:22 02:00</time>
      </trkpt>
      <trkpt lat="43.78235" lon="1.91971">
        <ele>238</ele>
        <time>2016-10-09T16:50:48 02:00</time>
      </trkpt>
      <trkpt lat="43.78248" lon="1.91945">
        <ele>240</ele>
        <time>2016-10-09T16:51:17 02:00</time>
      </trkpt>
      <trkpt lat="43.78262" lon="1.9192">
        <ele>242</ele>
        <time>2016-10-09T16:51:46 02:00</time>
      </trkpt>
      <trkpt lat="43.78275" lon="1.91894">
        <ele>244</ele>
        <time>2016-10-09T16:52:13 02:00</time>
      </trkpt>
      <trkpt lat="43.78283" lon="1.91864">
        <ele>247</ele>
        <time>2016-10-09T16:52:42 02:00</time>
      </trkpt>
      <trkpt lat="43.78288" lon="1.91833">
        <ele>249</ele>
        <time>2016-10-09T16:53:01 02:00</time>
      </trkpt>
      <trkpt lat="43.78295" lon="1.91803">
        <ele>254</ele>
        <time>2016-10-09T16:53:25 02:00</time>
      </trkpt>
      <trkpt lat="43.78305" lon="1.91774">
        <ele>258</ele>
        <time>2016-10-09T16:53:49 02:00</time>
      </trkpt>
      <trkpt lat="43.78304" lon="1.91741">
        <ele>262</ele>
        <time>2016-10-09T16:55:58 02:00</time>
      </trkpt>
      <trkpt lat="43.78286" lon="1.91722">
        <ele>261</ele>
        <time>2016-10-09T16:57:56 02:00</time>
      </trkpt>
      <trkpt lat="43.78289" lon="1.9169">
        <ele>264</ele>
        <time>2016-10-09T16:58:20 02:00</time>
      </trkpt>
      <trkpt lat="43.78305" lon="1.91667">
        <ele>267</ele>
        <time>2016-10-09T16:58:47 02:00</time>
      </trkpt>
      <trkpt lat="43.78312" lon="1.91673">
        <ele>267</ele>
        <time>2016-10-09T17:18:31 02:00</time>
      </trkpt>
      <trkpt lat="43.78332" lon="1.91657">
        <ele>270</ele>
        <time>2016-10-09T17:19:13 02:00</time>
      </trkpt>
      <trkpt lat="43.78354" lon="1.91646">
        <ele>269</ele>
        <time>2016-10-09T17:19:54 02:00</time>
      </trkpt>
      <trkpt lat="43.78374" lon="1.91631">
        <ele>268</ele>
        <time>2016-10-09T17:20:14 02:00</time>
      </trkpt>
      <trkpt lat="43.78395" lon="1.9162">
        <ele>267</ele>
        <time>2016-10-09T17:20:34 02:00</time>
      </trkpt>
      <trkpt lat="43.78415" lon="1.91605">
        <ele>266</ele>
        <time>2016-10-09T17:20:54 02:00</time>
      </trkpt>
      <trkpt lat="43.78435" lon="1.9159">
        <ele>266</ele>
        <time>2016-10-09T17:21:16 02:00</time>
      </trkpt>
      <trkpt lat="43.78457" lon="1.91577">
        <ele>266</ele>
        <time>2016-10-09T17:21:36 02:00</time>
      </trkpt>
      <trkpt lat="43.78488" lon="1.91551">
        <ele>265</ele>
        <time>2016-10-09T17:21:55 02:00</time>
      </trkpt>
      <trkpt lat="43.78463" lon="1.91539">
        <ele>263</ele>
        <time>2016-10-09T17:23:14 02:00</time>
      </trkpt>
      <trkpt lat="43.78441" lon="1.91536">
        <ele>262</ele>
        <time>2016-10-09T17:23:34 02:00</time>
      </trkpt>
      <trkpt lat="43.78417" lon="1.91531">
        <ele>261</ele>
        <time>2016-10-09T17:24:37 02:00</time>
      </trkpt>
      <trkpt lat="43.78396" lon="1.91518">
        <ele>260</ele>
        <time>2016-10-09T17:24:59 02:00</time>
      </trkpt>
      <trkpt lat="43.78385" lon="1.9149">
        <ele>258</ele>
        <time>2016-10-09T17:25:17 02:00</time>
      </trkpt>
      <trkpt lat="43.78376" lon="1.91461">
        <ele>254</ele>
        <time>2016-10-09T17:25:35 02:00</time>
      </trkpt>
      <trkpt lat="43.78368" lon="1.91431">
        <ele>251</ele>
        <time>2016-10-09T17:27:38 02:00</time>
      </trkpt>
      <trkpt lat="43.78355" lon="1.91404">
        <ele>249</ele>
        <time>2016-10-09T17:28:01 02:00</time>
      </trkpt>
      <trkpt lat="43.78344" lon="1.91389">
        <ele>248</ele>
        <time>2019-06-26T14:12:35 02:00</time>
      </trkpt>
      <trkpt lat="43.7835" lon="1.91373">
        <ele>245</ele>
        <time>2016-10-09T17:28:32 02:00</time>
      </trkpt>
      <trkpt lat="43.78363" lon="1.91347">
        <ele>241</ele>
        <time>2016-10-09T17:28:57 02:00</time>
      </trkpt>
      <trkpt lat="43.78375" lon="1.9132">
        <ele>238</ele>
        <time>2016-10-09T17:29:19 02:00</time>
      </trkpt>
      <trkpt lat="43.78387" lon="1.91292">
        <ele>234</ele>
        <time>2016-10-09T17:29:43 02:00</time>
      </trkpt>
      <trkpt lat="43.784" lon="1.91266">
        <ele>232</ele>
        <time>2016-10-09T17:30:08 02:00</time>
      </trkpt>
      <trkpt lat="43.78411" lon="1.91239">
        <ele>230</ele>
        <time>2016-10-09T17:30:31 02:00</time>
      </trkpt>
      <trkpt lat="43.78414" lon="1.91208">
        <ele>227</ele>
        <time>2016-10-09T17:30:55 02:00</time>
      </trkpt>
      <trkpt lat="43.78417" lon="1.91177">
        <ele>224</ele>
        <time>2016-10-09T17:31:18 02:00</time>
      </trkpt>
      <trkpt lat="43.7843" lon="1.91149">
        <ele>222</ele>
        <time>2016-10-09T17:31:38 02:00</time>
      </trkpt>
      <trkpt lat="43.78441" lon="1.91122">
        <ele>220</ele>
        <time>2016-10-09T17:32:02 02:00</time>
      </trkpt>
      <trkpt lat="43.78452" lon="1.91093">
        <ele>217</ele>
        <time>2016-10-09T17:32:24 02:00</time>
      </trkpt>
      <trkpt lat="43.78472" lon="1.9108">
        <ele>215</ele>
        <time>2016-10-09T17:33:10 02:00</time>
      </trkpt>
      <trkpt lat="43.78492" lon="1.91062">
        <ele>213</ele>
        <time>2016-10-09T17:33:35 02:00</time>
      </trkpt>
      <trkpt lat="43.78511" lon="1.91046">
        <ele>212</ele>
        <time>2016-10-09T17:33:56 02:00</time>
      </trkpt>
      <trkpt lat="43.78534" lon="1.91047">
        <ele>213</ele>
        <time>2016-10-09T17:34:18 02:00</time>
      </trkpt>
      <trkpt lat="43.78557" lon="1.9105">
        <ele>214</ele>
        <time>2016-10-09T17:34:42 02:00</time>
      </trkpt>
      <trkpt lat="43.78567" lon="1.91058">
        <ele>214</ele>
        <time>2019-06-26T14:14:00 02:00</time>
      </trkpt>
      <trkpt lat="43.78576" lon="1.91033">
        <ele>213</ele>
        <time>2016-10-09T17:35:10 02:00</time>
      </trkpt>
      <trkpt lat="43.78576" lon="1.91001">
        <ele>210</ele>
        <time>2016-10-09T17:35:31 02:00</time>
      </trkpt>
      <trkpt lat="43.78579" lon="1.9097">
        <ele>207</ele>
        <time>2016-10-09T17:35:51 02:00</time>
      </trkpt>
      <trkpt lat="43.78581" lon="1.90939">
        <ele>205</ele>
        <time>2016-10-09T17:36:11 02:00</time>
      </trkpt>
      <trkpt lat="43.78582" lon="1.90907">
        <ele>203</ele>
        <time>2016-10-09T17:36:30 02:00</time>
      </trkpt>
      <trkpt lat="43.78578" lon="1.90876">
        <ele>202</ele>
        <time>2016-10-09T17:36:49 02:00</time>
      </trkpt>
      <trkpt lat="43.78574" lon="1.90845">
        <ele>201</ele>
        <time>2016-10-09T17:37:07 02:00</time>
      </trkpt>
      <trkpt lat="43.78572" lon="1.90814">
        <ele>200</ele>
        <time>2016-10-09T17:37:28 02:00</time>
      </trkpt>
      <trkpt lat="43.78579" lon="1.90784">
        <ele>201</ele>
        <time>2016-10-09T17:37:49 02:00</time>
      </trkpt>
      <trkpt lat="43.78585" lon="1.90753">
        <ele>201</ele>
        <time>2016-10-09T17:38:14 02:00</time>
      </trkpt>
      <trkpt lat="43.78591" lon="1.90723">
        <ele>201</ele>
        <time>2016-10-09T17:38:37 02:00</time>
      </trkpt>
      <trkpt lat="43.78589" lon="1.90701">
        <ele>200</ele>
        <time>2019-06-26T14:15:00 02:00</time>
      </trkpt>
      <trkpt lat="43.78597" lon="1.9069">
        <ele>200</ele>
        <time>2016-10-09T17:40:52 02:00</time>
      </trkpt>
      <trkpt lat="43.78614" lon="1.90667">
        <ele>199</ele>
        <time>2016-10-09T17:41:14 02:00</time>
      </trkpt>
      <trkpt lat="43.78631" lon="1.90645">
        <ele>199</ele>
        <time>2016-10-09T17:41:37 02:00</time>
      </trkpt>
      <trkpt lat="43.7864" lon="1.90615">
        <ele>198</ele>
        <time>2016-10-09T17:41:58 02:00</time>
      </trkpt>
      <trkpt lat="43.78636" lon="1.90584">
        <ele>197</ele>
        <time>2016-10-09T17:42:20 02:00</time>
      </trkpt>
      <trkpt lat="43.78622" lon="1.9056">
        <ele>199</ele>
        <time>2016-10-09T17:42:46 02:00</time>
      </trkpt>
      <trkpt lat="43.78618" lon="1.90545">
        <ele>201</ele>
        <time>2019-06-26T14:15:35 02:00</time>
      </trkpt>
      <trkpt lat="43.78622" lon="1.90529">
        <ele>202</ele>
        <time>2016-10-09T17:43:15 02:00</time>
      </trkpt>
      <trkpt lat="43.7864" lon="1.90508">
        <ele>203</ele>
        <time>2016-10-09T17:43:36 02:00</time>
      </trkpt>
      <trkpt lat="43.78651" lon="1.90478">
        <ele>206</ele>
        <time>2016-10-09T17:44:01 02:00</time>
      </trkpt>
      <trkpt lat="43.78664" lon="1.90452">
        <ele>210</ele>
        <time>2016-10-09T17:44:23 02:00</time>
      </trkpt>
      <trkpt lat="43.78679" lon="1.90426">
        <ele>212</ele>
        <time>2016-10-09T17:44:47 02:00</time>
      </trkpt>
      <trkpt lat="43.78687" lon="1.90397">
        <ele>214</ele>
        <time>2016-10-09T17:45:07 02:00</time>
      </trkpt>
      <trkpt lat="43.78693" lon="1.90366">
        <ele>217</ele>
        <time>2016-10-09T17:45:35 02:00</time>
      </trkpt>
      <trkpt lat="43.78702" lon="1.90336">
        <ele>218</ele>
        <time>2016-10-09T17:45:57 02:00</time>
      </trkpt>
      <trkpt lat="43.78712" lon="1.90308">
        <ele>219</ele>
        <time>2016-10-09T17:46:20 02:00</time>
      </trkpt>
      <trkpt lat="43.78727" lon="1.90284">
        <ele>218</ele>
        <time>2016-10-09T17:46:45 02:00</time>
      </trkpt>
      <trkpt lat="43.78738" lon="1.90255">
        <ele>220</ele>
        <time>2016-10-09T17:47:09 02:00</time>
      </trkpt>
      <trkpt lat="43.78744" lon="1.90223">
        <ele>222</ele>
        <time>2016-10-09T17:47:31 02:00</time>
      </trkpt>
      <trkpt lat="43.78749" lon="1.90192">
        <ele>223</ele>
        <time>2016-10-09T17:47:52 02:00</time>
      </trkpt>
      <trkpt lat="43.78751" lon="1.9016">
        <ele>225</ele>
        <time>2016-10-09T17:48:12 02:00</time>
      </trkpt>
      <trkpt lat="43.7875" lon="1.90128">
        <ele>224</ele>
        <time>2016-10-09T17:48:33 02:00</time>
      </trkpt>
      <trkpt lat="43.78752" lon="1.90097">
        <ele>223</ele>
        <time>2016-10-09T17:48:55 02:00</time>
      </trkpt>
      <trkpt lat="43.78754" lon="1.90064">
        <ele>223</ele>
        <time>2016-10-09T17:49:16 02:00</time>
      </trkpt>
      <trkpt lat="43.78755" lon="1.90033">
        <ele>224</ele>
        <time>2016-10-09T17:49:37 02:00</time>
      </trkpt>
      <trkpt lat="43.78758" lon="1.90001">
        <ele>224</ele>
        <time>2016-10-09T17:49:57 02:00</time>
      </trkpt>
      <trkpt lat="43.78768" lon="1.89974">
        <ele>224</ele>
        <time>2016-10-09T17:50:15 02:00</time>
      </trkpt>
      <trkpt lat="43.78782" lon="1.89947">
        <ele>225</ele>
        <time>2016-10-09T17:50:35 02:00</time>
      </trkpt>
      <trkpt lat="43.78795" lon="1.8992">
        <ele>226</ele>
        <time>2016-10-09T17:51:01 02:00</time>
      </trkpt>
      <trkpt lat="43.78809" lon="1.89893">
        <ele>228</ele>
        <time>2016-10-09T17:51:21 02:00</time>
      </trkpt>
      <trkpt lat="43.78822" lon="1.89868">
        <ele>230</ele>
        <time>2016-10-09T17:51:41 02:00</time>
      </trkpt>
      <trkpt lat="43.78836" lon="1.89842">
        <ele>233</ele>
        <time>2016-10-09T17:52:00 02:00</time>
      </trkpt>
      <trkpt lat="43.78851" lon="1.89817">
        <ele>234</ele>
        <time>2016-10-09T17:52:20 02:00</time>
      </trkpt>
      <trkpt lat="43.78866" lon="1.89792">
        <ele>236</ele>
        <time>2016-10-09T17:52:40 02:00</time>
      </trkpt>
      <trkpt lat="43.78879" lon="1.89765">
        <ele>239</ele>
        <time>2016-10-09T17:53:17 02:00</time>
      </trkpt>
      <trkpt lat="43.78887" lon="1.89736">
        <ele>242</ele>
        <time>2016-10-09T17:53:37 02:00</time>
      </trkpt>
      <trkpt lat="43.78891" lon="1.89705">
        <ele>246</ele>
        <time>2016-10-09T17:54:17 02:00</time>
      </trkpt>
      <trkpt lat="43.78895" lon="1.89673">
        <ele>249</ele>
        <time>2016-10-09T17:54:42 02:00</time>
      </trkpt>
      <trkpt lat="43.78896" lon="1.89642">
        <ele>255</ele>
        <time>2016-10-09T17:55:09 02:00</time>
      </trkpt>
      <trkpt lat="43.78905" lon="1.89613">
        <ele>262</ele>
        <time>2016-10-09T17:55:38 02:00</time>
      </trkpt>
      <trkpt lat="43.78923" lon="1.89594">
        <ele>267</ele>
        <time>2016-10-09T17:56:08 02:00</time>
      </trkpt>
      <trkpt lat="43.78943" lon="1.89579">
        <ele>270</ele>
        <time>2016-10-09T17:56:33 02:00</time>
      </trkpt>
      <trkpt lat="43.78963" lon="1.89563">
        <ele>271</ele>
        <time>2016-10-09T17:56:57 02:00</time>
      </trkpt>
      <trkpt lat="43.78983" lon="1.89549">
        <ele>271</ele>
        <time>2016-10-09T17:59:37 02:00</time>
      </trkpt>
      <trkpt lat="43.79002" lon="1.8953">
        <ele>271</ele>
        <time>2016-10-09T17:59:53 02:00</time>
      </trkpt>
      <trkpt lat="43.79018" lon="1.89505">
        <ele>273</ele>
        <time>2016-10-09T18:00:12 02:00</time>
      </trkpt>
      <trkpt lat="43.79032" lon="1.8948">
        <ele>272</ele>
        <time>2016-10-09T18:00:32 02:00</time>
      </trkpt>
    </trkseg>
  </trk>
</gpx>